Time;durP1;ratioP1;P1;durP2;ratioP2;P2;SDS_P1;SDS_P2;PMS_P1;PMS_P2;Temp;Humidity;BMP_temperature;BMP_pressure;BME280_temperature;BME280_humidity;BME280_pressure;Samples;Min_cycle;Max_cycle;Signal;HPM_P1;HPM_P2
2021/09/19 00:01:16;;;;;;;3.33;2.28;;;12.90;99.90;;;;;;5052458;28;20547;-62
2021/09/19 00:03:41;;;;;;;5.68;3.25;;;12.80;99.90;;;;;;5051091;28;20032;-62
2021/09/19 00:06:07;;;;;;;4.20;2.72;;;12.90;99.90;;;;;;5052344;28;20049;-63
2021/09/19 00:08:33;;;;;;;4.78;2.47;;;12.80;99.90;;;;;;5052106;28;20037;-61
2021/09/19 00:10:59;;;;;;;2.78;2.28;;;12.90;99.90;;;;;;5052509;28;20025;-63
2021/09/19 00:13:24;;;;;;;4.25;2.60;;;12.80;99.90;;;;;;5051753;28;20082;-61
2021/09/19 00:15:50;;;;;;;4.15;2.33;;;12.80;99.90;;;;;;5032576;28;20063;-63
2021/09/19 00:18:17;;;;;;;3.05;2.50;;;12.80;99.90;;;;;;5030846;28;20032;-59
2021/09/19 00:20:43;;;;;;;3.67;2.75;;;12.80;99.90;;;;;;5032479;28;20055;-61
2021/09/19 00:23:08;;;;;;;5.90;2.92;;;12.70;99.90;;;;;;5032007;28;20063;-62
2021/09/19 00:25:34;;;;;;;2.90;2.30;;;12.70;99.90;;;;;;5032416;28;20025;-63
2021/09/19 00:28:00;;;;;;;2.40;2.17;;;12.70;99.90;;;;;;5032183;28;20025;-62
2021/09/19 00:30:26;;;;;;;4.68;2.33;;;12.70;99.90;;;;;;5032103;28;20018;-62
2021/09/19 00:32:51;;;;;;;4.03;2.40;;;12.70;99.90;;;;;;5030720;28;20026;-63
2021/09/19 00:35:17;;;;;;;3.25;2.53;;;12.70;99.90;;;;;;5032524;28;20033;-62
2021/09/19 00:37:42;;;;;;;4.03;2.25;;;12.80;99.90;;;;;;5032070;28;20041;-62
2021/09/19 00:40:09;;;;;;;4.45;2.25;;;12.70;99.90;;;;;;5032173;28;20056;-63
2021/09/19 00:42:35;;;;;;;3.85;2.42;;;12.70;99.90;;;;;;5032406;28;20095;-62
2021/09/19 00:45:08;;;;;;;3.78;2.67;;;12.70;99.90;;;;;;5036269;28;20117;-62
2021/09/19 00:47:34;;;;;;;5.60;2.80;;;12.70;99.90;;;;;;5034592;28;20484;-63
2021/09/19 00:50:00;;;;;;;2.83;1.98;;;12.70;99.90;;;;;;5040367;28;20028;-60
2021/09/19 00:52:27;;;;;;;2.83;2.30;;;12.70;99.90;;;;;;5055994;28;20059;-62
2021/09/19 00:54:57;;;;;;;5.63;2.45;;;12.70;99.90;;;;;;5056115;28;20032;-60
2021/09/19 00:57:25;;;;;;;4.25;2.78;;;12.70;99.90;;;;;;5055711;28;20138;-62
2021/09/19 00:59:50;;;;;;;4.90;2.30;;;12.70;99.90;;;;;;5055938;28;20071;-62
2021/09/19 01:02:17;;;;;;;4.32;2.40;;;12.70;99.90;;;;;;5055810;28;20551;-63
2021/09/19 01:04:42;;;;;;;3.03;2.00;;;12.70;99.90;;;;;;5054484;28;20523;-63
2021/09/19 01:07:08;;;;;;;3.40;2.20;;;12.70;99.90;;;;;;5055543;28;20123;-62
2021/09/19 01:09:38;;;;;;;3.60;2.35;;;12.70;99.90;;;;;;5055554;28;20017;-62
2021/09/19 01:12:04;;;;;;;4.82;1.98;;;12.70;99.90;;;;;;5055985;28;20376;-60
2021/09/19 01:14:31;;;;;;;4.85;2.40;;;12.70;99.90;;;;;;5045975;28;20029;-60
2021/09/19 01:16:58;;;;;;;3.17;2.53;;;12.70;99.90;;;;;;5035710;28;20068;-61
2021/09/19 01:19:24;;;;;;;3.47;2.00;;;12.70;99.90;;;;;;5034417;28;20022;-62
2021/09/19 01:21:51;;;;;;;4.70;2.20;;;12.70;99.90;;;;;;5035765;28;20060;-62
2021/09/19 01:24:17;;;;;;;4.30;2.55;;;12.70;99.90;;;;;;5035283;28;20025;-62
2021/09/19 01:26:42;;;;;;;4.93;2.25;;;12.60;99.90;;;;;;5035323;28;20042;-61
2021/09/19 01:29:08;;;;;;;4.68;2.05;;;12.60;99.90;;;;;;5034355;28;20064;-62
2021/09/19 01:31:34;;;;;;;3.38;2.00;;;12.60;99.90;;;;;;5035264;28;20071;-59
2021/09/19 01:33:59;;;;;;;3.58;2.35;;;12.60;99.90;;;;;;5033817;28;20129;-61
2021/09/19 01:36:25;;;;;;;3.40;2.33;;;12.60;99.90;;;;;;5035115;28;20040;-61
2021/09/19 01:38:51;;;;;;;6.63;2.22;;;12.60;99.90;;;;;;5035118;28;20116;-61
2021/09/19 01:41:21;;;;;;;5.35;2.15;;;12.60;99.90;;;;;;5035115;28;20036;-60
2021/09/19 01:43:47;;;;;;;4.00;2.35;;;12.60;99.90;;;;;;5035120;28;20342;-62
2021/09/19 01:46:13;;;;;;;2.38;2.00;;;12.60;99.90;;;;;;5034921;28;20028;-61
2021/09/19 01:48:39;;;;;;;2.95;2.20;;;12.60;99.90;;;;;;5033482;28;20084;-62
2021/09/19 01:51:07;;;;;;;3.38;1.98;;;12.60;99.90;;;;;;5048159;28;20374;-63
2021/09/19 01:53:33;;;;;;;4.22;2.13;;;12.50;99.90;;;;;;5054664;28;20033;-61
2021/09/19 01:55:59;;;;;;;4.53;2.63;;;12.50;99.90;;;;;;5054303;28;20032;-63
2021/09/19 01:58:25;;;;;;;5.07;2.28;;;12.50;99.90;;;;;;5053315;28;20021;-62
2021/09/19 02:01:01;;;;;;;3.45;2.33;;;12.50;99.90;;;;;;5054839;28;20029;-62
2021/09/19 02:03:26;;;;;;;2.90;2.28;;;12.50;99.90;;;;;;5053168;28;20149;-62
2021/09/19 02:05:52;;;;;;;3.88;2.30;;;12.50;99.90;;;;;;5054404;28;20558;-62
2021/09/19 02:08:17;;;;;;;3.95;2.53;;;12.50;99.90;;;;;;5054481;28;20143;-60
2021/09/19 02:10:43;;;;;;;4.93;2.17;;;12.50;99.90;;;;;;5054574;28;20111;-62
2021/09/19 02:13:09;;;;;;;3.05;2.35;;;12.40;99.90;;;;;;5053161;28;20460;-60
2021/09/19 02:15:34;;;;;;;3.03;2.20;;;12.50;99.90;;;;;;5036119;28;20033;-59
2021/09/19 02:18:00;;;;;;;4.35;2.53;;;12.40;99.90;;;;;;5033289;28;20072;-60
2021/09/19 02:20:26;;;;;;;4.22;2.45;;;12.50;99.90;;;;;;5033944;28;20035;-60
2021/09/19 02:22:52;;;;;;;3.17;2.10;;;12.40;99.90;;;;;;5034405;28;20033;-62
2021/09/19 02:25:17;;;;;;;4.85;2.63;;;12.40;99.90;;;;;;5034052;28;20407;-62
2021/09/19 02:27:43;;;;;;;5.57;2.10;;;12.40;99.90;;;;;;5034296;28;20040;-62
2021/09/19 02:30:12;;;;;;;5.13;2.80;;;12.40;99.90;;;;;;5034164;28;20068;-60
2021/09/19 02:32:38;;;;;;;3.25;2.30;;;12.30;99.90;;;;;;5033029;28;20477;-62
2021/09/19 02:35:05;;;;;;;4.28;2.03;;;12.30;99.90;;;;;;5034023;28;20108;-60
2021/09/19 02:37:31;;;;;;;4.82;2.65;;;12.30;99.90;;;;;;5034002;28;20026;-61
2021/09/19 02:39:56;;;;;;;5.82;3.25;;;12.30;99.90;;;;;;5034031;28;20056;-62
2021/09/19 02:42:22;;;;;;;4.20;2.22;;;12.30;99.90;;;;;;5034022;28;20108;-63
2021/09/19 02:44:47;;;;;;;3.30;2.75;;;12.30;99.90;;;;;;5033974;28;20112;-62
2021/09/19 02:47:13;;;;;;;4.32;2.15;;;12.30;99.90;;;;;;5033716;28;20021;-62
2021/09/19 02:49:38;;;;;;;4.03;2.50;;;12.30;99.90;;;;;;5033682;28;20034;-60
2021/09/19 02:52:04;;;;;;;5.93;2.85;;;12.40;99.90;;;;;;5053722;28;20393;-62
2021/09/19 02:54:29;;;;;;;4.10;2.60;;;12.30;99.90;;;;;;5053486;28;20037;-62
2021/09/19 02:56:55;;;;;;;3.75;2.38;;;12.30;99.90;;;;;;5053799;28;20070;-62
2021/09/19 02:59:21;;;;;;;2.65;2.03;;;12.30;99.90;;;;;;5053475;28;20476;-62
2021/09/19 03:01:46;;;;;;;2.88;2.20;;;12.30;99.90;;;;;;5053496;28;20101;-62
2021/09/19 03:04:12;;;;;;;5.20;2.90;;;12.30;99.90;;;;;;5052138;28;20118;-62
2021/09/19 03:06:38;;;;;;;3.17;2.50;;;12.30;99.90;;;;;;5052259;28;20583;-62
2021/09/19 03:09:03;;;;;;;5.45;2.60;;;12.30;99.90;;;;;;5053371;28;20028;-62
2021/09/19 03:11:29;;;;;;;3.28;2.28;;;12.20;99.90;;;;;;5053299;28;20019;-62
2021/09/19 03:13:54;;;;;;;4.30;2.90;;;12.30;99.90;;;;;;5048734;28;20099;-62
2021/09/19 03:16:20;;;;;;;3.88;2.60;;;12.20;99.90;;;;;;5033199;28;20028;-62
2021/09/19 03:18:46;;;;;;;2.63;2.22;;;12.20;99.90;;;;;;5031908;28;20128;-62
2021/09/19 03:21:12;;;;;;;2.85;2.05;;;12.20;99.90;;;;;;5033314;28;20060;-62
2021/09/19 03:23:37;;;;;;;3.65;2.38;;;12.20;99.90;;;;;;5032896;28;20100;-61
2021/09/19 03:26:03;;;;;;;4.53;2.55;;;12.20;99.90;;;;;;5033161;28;20120;-61
2021/09/19 03:28:28;;;;;;;4.30;2.72;;;12.20;99.90;;;;;;5033189;28;20030;-62
2021/09/19 03:30:54;;;;;;;4.93;2.88;;;12.20;99.90;;;;;;5032997;28;20075;-62
2021/09/19 03:33:19;;;;;;;2.95;2.10;;;12.20;99.90;;;;;;5031908;28;20473;-62
2021/09/19 03:35:45;;;;;;;7.43;3.28;;;12.20;99.90;;;;;;5032896;28;20091;-62
2021/09/19 03:38:10;;;;;;;5.03;2.50;;;12.20;99.90;;;;;;5033007;28;20021;-63
2021/09/19 03:40:36;;;;;;;3.53;2.33;;;12.20;99.90;;;;;;5032862;28;20112;-62
2021/09/19 03:43:01;;;;;;;4.80;2.47;;;12.20;99.90;;;;;;5033021;28;20029;-62
2021/09/19 03:45:30;;;;;;;4.43;2.30;;;12.20;99.90;;;;;;5032565;28;20081;-62
2021/09/19 03:48:01;;;;;;;3.22;2.53;;;12.20;99.90;;;;;;5031595;28;20460;-62
2021/09/19 03:50:27;;;;;;;4.40;2.17;;;12.20;99.90;;;;;;5040656;28;20057;-61
2021/09/19 03:52:52;;;;;;;5.53;2.75;;;12.10;99.90;;;;;;5052632;28;20067;-60
2021/09/19 03:55:18;;;;;;;3.60;2.47;;;12.10;99.90;;;;;;5052700;28;20029;-60
2021/09/19 03:57:43;;;;;;;5.53;3.08;;;12.10;99.90;;;;;;5052321;28;20033;-63
2021/09/19 04:00:09;;;;;;;5.68;2.45;;;12.10;99.90;;;;;;5052435;28;20306;-62
2021/09/19 04:02:35;;;;;;;6.15;2.55;;;12.10;99.90;;;;;;5051296;28;20025;-61
2021/09/19 04:05:00;;;;;;;3.30;2.28;;;12.10;99.90;;;;;;5052322;28;20021;-62
2021/09/19 04:07:26;;;;;;;4.80;2.60;;;12.10;99.90;;;;;;5052566;28;20212;-61
2021/09/19 04:09:51;;;;;;;3.25;2.63;;;12.10;99.90;;;;;;5052290;28;20044;-61
2021/09/19 04:12:17;;;;;;;6.78;2.70;;;12.10;99.90;;;;;;5052512;28;20032;-61
2021/09/19 04:14:42;;;;;;;3.80;2.60;;;12.10;99.90;;;;;;5040740;28;20096;-62
2021/09/19 04:17:08;;;;;;;4.03;2.40;;;12.10;99.90;;;;;;5032586;28;20018;-62
2021/09/19 04:19:33;;;;;;;5.57;2.35;;;12.10;99.90;;;;;;5030727;28;20500;-62
2021/09/19 04:21:59;;;;;;;3.83;3.00;;;12.00;99.90;;;;;;5032545;28;20053;-61
2021/09/19 04:24:24;;;;;;;4.63;2.78;;;12.00;99.90;;;;;;5032194;28;20033;-62
2021/09/19 04:26:50;;;;;;;4.47;2.05;;;12.00;99.90;;;;;;5032369;28;20052;-60
2021/09/19 04:29:15;;;;;;;3.80;2.38;;;12.00;99.90;;;;;;5032206;28;20116;-62
2021/09/19 04:31:41;;;;;;;3.88;2.50;;;12.00;99.90;;;;;;5032236;28;20037;-62
2021/09/19 04:34:06;;;;;;;4.38;2.72;;;12.00;99.90;;;;;;5030973;28;20105;-62
2021/09/19 04:36:32;;;;;;;4.85;3.08;;;12.00;99.90;;;;;;5032219;28;20037;-62
2021/09/19 04:38:57;;;;;;;4.40;3.25;;;12.00;99.90;;;;;;5032233;28;20040;-62
2021/09/19 04:41:22;;;;;;;3.13;2.60;;;12.00;99.90;;;;;;5032232;28;20034;-60
2021/09/19 04:43:48;;;;;;;4.85;2.78;;;12.00;99.90;;;;;;5032102;28;20025;-61
2021/09/19 04:46:13;;;;;;;6.20;2.42;;;12.00;99.90;;;;;;5032045;28;20022;-61
2021/09/19 04:48:39;;;;;;;4.80;2.95;;;12.00;99.90;;;;;;5030869;28;20022;-61
2021/09/19 04:51:04;;;;;;;4.72;3.28;;;12.00;99.90;;;;;;5045277;28;20112;-61
2021/09/19 04:53:30;;;;;;;3.17;2.10;;;12.00;99.90;;;;;;5052081;28;20446;-62
2021/09/19 04:55:56;;;;;;;4.13;2.85;;;12.00;99.90;;;;;;5039319;28;20397;-62
2021/09/19 04:58:21;;;;;;;3.03;2.30;;;12.00;99.90;;;;;;5023426;28;20067;-62
2021/09/19 05:00:47;;;;;;;6.45;3.25;;;11.90;99.90;;;;;;5037244;28;20029;-62
2021/09/19 05:03:12;;;;;;;5.57;2.70;;;11.90;99.90;;;;;;5029018;28;20496;-62
2021/09/19 05:05:38;;;;;;;5.03;3.00;;;11.90;99.90;;;;;;5034187;28;20075;-62
2021/09/19 05:08:03;;;;;;;4.63;2.80;;;12.00;99.90;;;;;;5050110;28;20037;-62
2021/09/19 05:10:29;;;;;;;6.35;2.85;;;12.00;99.90;;;;;;5049951;28;20061;-61
2021/09/19 05:12:54;;;;;;;3.92;2.65;;;12.00;99.90;;;;;;5042729;28;20064;-62
2021/09/19 05:15:20;;;;;;;3.40;2.63;;;12.00;99.90;;;;;;5029987;28;20061;-62
2021/09/19 05:17:45;;;;;;;4.55;2.47;;;12.00;99.90;;;;;;5028831;28;20571;-62
2021/09/19 05:20:11;;;;;;;4.20;2.28;;;12.00;99.90;;;;;;5030150;28;20535;-60
2021/09/19 05:22:37;;;;;;;6.85;2.88;;;12.00;99.90;;;;;;5029969;28;20470;-62
2021/09/19 05:25:03;;;;;;;5.50;2.53;;;12.00;99.90;;;;;;5029875;28;20035;-62
2021/09/19 05:27:28;;;;;;;5.40;2.63;;;12.00;99.90;;;;;;5030286;28;20109;-62
2021/09/19 05:29:54;;;;;;;3.85;2.53;;;12.00;99.90;;;;;;5024076;28;20030;-61
2021/09/19 05:32:19;;;;;;;6.18;2.90;;;12.10;99.90;;;;;;5047010;28;20032;-63
2021/09/19 05:34:45;;;;;;;4.90;2.50;;;12.10;99.90;;;;;;5053157;28;20431;-62
2021/09/19 05:37:10;;;;;;;2.55;2.30;;;12.10;99.90;;;;;;5053429;28;20033;-62
2021/09/19 05:39:36;;;;;;;4.25;2.67;;;12.10;99.90;;;;;;5052984;28;20029;-62
2021/09/19 05:42:01;;;;;;;6.63;2.67;;;12.10;99.90;;;;;;5053410;28;20068;-63
2021/09/19 05:44:27;;;;;;;4.32;2.83;;;12.10;99.90;;;;;;5053047;28;20063;-62
2021/09/19 05:46:52;;;;;;;5.13;2.85;;;12.10;99.90;;;;;;5053190;28;20112;-60
2021/09/19 05:49:18;;;;;;;3.78;2.90;;;12.00;99.90;;;;;;5052090;28;20127;-61
2021/09/19 05:51:43;;;;;;;4.00;2.63;;;12.10;99.90;;;;;;5039349;28;20021;-61
2021/09/19 05:54:09;;;;;;;6.43;2.90;;;12.00;99.90;;;;;;5053228;28;20047;-62
2021/09/19 05:56:34;;;;;;;4.47;3.50;;;12.10;99.90;;;;;;5052633;28;20104;-62
2021/09/19 05:59:00;;;;;;;3.92;2.45;;;12.10;99.90;;;;;;5052896;28;20033;-62
2021/09/19 06:01:25;;;;;;;5.93;3.58;;;12.10;99.90;;;;;;5052850;28;20037;-62
2021/09/19 06:03:51;;;;;;;6.07;2.90;;;12.10;99.90;;;;;;5046529;28;20401;-61
2021/09/19 06:06:16;;;;;;;4.60;3.15;;;12.20;99.90;;;;;;5032512;28;20049;-62
2021/09/19 06:08:42;;;;;;;6.72;3.15;;;12.20;99.90;;;;;;5032838;28;20060;-61
2021/09/19 06:11:07;;;;;;;6.60;3.70;;;12.20;99.90;;;;;;5032648;28;20030;-62
2021/09/19 06:13:33;;;;;;;4.97;2.85;;;12.30;99.90;;;;;;5032613;28;20029;-62
2021/09/19 06:15:59;;;;;;;4.35;3.00;;;12.30;99.90;;;;;;5025825;28;20488;-63
2021/09/19 06:18:28;;;;;;;5.63;3.53;;;12.40;99.90;;;;;;5030300;28;20025;-63
2021/09/19 06:20:54;;;;;;;5.07;3.30;;;12.50;99.90;;;;;;5032147;28;20502;-59
2021/09/19 06:23:20;;;;;;;3.92;2.72;;;12.50;99.90;;;;;;5032587;28;20033;-61
2021/09/19 06:25:45;;;;;;;5.43;2.63;;;12.60;99.90;;;;;;5031885;28;20381;-63
2021/09/19 06:28:12;;;;;;;3.35;2.55;;;12.70;99.90;;;;;;5032357;28;20025;-61
2021/09/19 06:30:37;;;;;;;4.80;2.35;;;12.70;99.90;;;;;;5032288;28;20029;-62
2021/09/19 06:33:03;;;;;;;5.47;2.63;;;12.80;99.90;;;;;;5031021;28;20439;-60
2021/09/19 06:35:28;;;;;;;6.55;2.65;;;12.80;99.90;;;;;;5032195;28;20029;-62
2021/09/19 06:37:54;;;;;;;3.60;2.20;;;12.90;99.90;;;;;;5032011;28;20033;-62
2021/09/19 06:40:19;;;;;;;4.40;2.65;;;13.00;99.90;;;;;;5032026;28;20033;-63
2021/09/19 06:42:45;;;;;;;3.30;2.00;;;13.00;99.90;;;;;;5030691;28;20037;-62
2021/09/19 06:45:11;;;;;;;4.32;2.78;;;13.10;99.90;;;;;;5032082;28;20088;-62
2021/09/19 06:47:39;;;;;;;5.07;2.75;;;13.10;99.90;;;;;;5028023;28;20037;-62
2021/09/19 06:50:05;;;;;;;4.30;2.20;;;13.20;99.90;;;;;;5031092;28;20025;-62
2021/09/19 06:52:31;;;;;;;4.75;2.70;;;13.20;99.90;;;;;;5032201;28;20084;-61
2021/09/19 06:54:56;;;;;;;5.25;2.75;;;13.30;99.90;;;;;;5031411;28;20480;-62
2021/09/19 06:57:22;;;;;;;4.20;2.78;;;13.40;99.90;;;;;;5030408;28;20044;-63
2021/09/19 06:59:47;;;;;;;7.60;2.45;;;13.40;99.90;;;;;;5031736;28;20401;-62
2021/09/19 07:02:13;;;;;;;3.42;2.58;;;13.40;99.90;;;;;;5031646;28;20166;-62
2021/09/19 07:04:38;;;;;;;5.82;3.15;;;13.50;99.90;;;;;;5028401;28;20029;-62
2021/09/19 07:07:04;;;;;;;3.30;2.30;;;13.50;99.90;;;;;;5051212;28;20385;-60
2021/09/19 07:09:29;;;;;;;4.15;2.63;;;13.60;99.90;;;;;;5051768;28;20029;-63
2021/09/19 07:11:54;;;;;;;6.20;2.78;;;13.60;99.90;;;;;;5031257;28;20038;-63
2021/09/19 07:14:20;;;;;;;3.58;2.88;;;13.60;99.90;;;;;;5030443;28;20116;-62
2021/09/19 07:16:45;;;;;;;4.63;2.70;;;13.60;99.90;;;;;;5031053;28;20033;-61
2021/09/19 07:19:11;;;;;;;4.53;2.75;;;13.70;99.90;;;;;;5030290;28;20080;-60
2021/09/19 07:21:36;;;;;;;4.25;2.72;;;13.80;99.90;;;;;;5031375;28;20033;-62
2021/09/19 07:24:02;;;;;;;7.80;2.55;;;13.90;99.90;;;;;;5030900;28;20038;-62
2021/09/19 07:26:27;;;;;;;4.50;3.00;;;14.00;99.90;;;;;;5031194;28;20037;-62
2021/09/19 07:28:53;;;;;;;5.05;2.88;;;14.10;99.90;;;;;;5030782;28;20029;-62
2021/09/19 07:31:19;;;;;;;5.07;2.50;;;14.20;99.90;;;;;;5031160;28;20021;-61
2021/09/19 07:33:45;;;;;;;4.72;2.75;;;14.20;99.90;;;;;;5030204;28;20032;-64
2021/09/19 07:36:11;;;;;;;4.55;2.50;;;14.30;99.90;;;;;;5029847;28;20025;-64
2021/09/19 07:38:37;;;;;;;4.80;2.42;;;14.30;99.90;;;;;;5031443;28;20082;-60
2021/09/19 07:41:03;;;;;;;6.97;2.75;;;14.40;99.90;;;;;;5032773;28;20101;-64
2021/09/19 07:43:29;;;;;;;4.05;2.92;;;14.40;99.90;;;;;;5031074;28;20436;-64
2021/09/19 07:45:54;;;;;;;3.95;2.67;;;14.40;99.90;;;;;;5032304;28;20022;-65
2021/09/19 07:48:21;;;;;;;4.05;2.88;;;14.50;99.90;;;;;;5029046;28;20053;-66
2021/09/19 07:50:47;;;;;;;4.55;2.75;;;14.50;99.90;;;;;;5032359;28;20056;-65
2021/09/19 07:53:13;;;;;;;4.65;2.80;;;14.50;99.90;;;;;;5032054;28;20022;-64
2021/09/19 07:55:38;;;;;;;2.42;2.22;;;14.70;99.90;;;;;;5034812;28;20025;-63
2021/09/19 07:58:05;;;;;;;3.45;2.83;;;14.80;99.90;;;;;;5033217;28;20025;-61
2021/09/19 08:00:31;;;;;;;3.67;3.00;;;14.90;99.90;;;;;;5052385;28;20379;-63
2021/09/19 08:02:56;;;;;;;6.75;3.28;;;15.00;99.90;;;;;;5032697;28;20104;-62
2021/09/19 08:05:23;;;;;;;4.85;2.65;;;15.00;99.90;;;;;;5031403;28;20136;-62
2021/09/19 08:07:48;;;;;;;5.47;3.10;;;15.10;99.90;;;;;;5032125;28;20029;-64
2021/09/19 08:10:14;;;;;;;3.75;2.33;;;15.20;99.90;;;;;;5032413;28;20037;-60
2021/09/19 08:12:41;;;;;;;4.88;3.00;;;15.30;99.90;;;;;;5031935;28;20097;-61
2021/09/19 08:15:08;;;;;;;3.85;2.63;;;15.40;99.90;;;;;;5029513;28;20526;-62
2021/09/19 08:17:34;;;;;;;6.10;2.83;;;15.50;99.90;;;;;;5030849;28;20785;-62
2021/09/19 08:19:59;;;;;;;3.35;2.90;;;15.70;99.90;;;;;;5031813;28;20104;-61
2021/09/19 08:22:25;;;;;;;5.63;3.30;;;15.80;99.00;;;;;;5032069;28;20107;-61
2021/09/19 08:24:50;;;;;;;4.10;3.05;;;15.80;99.90;;;;;;5026159;28;20034;-62
2021/09/19 08:27:16;;;;;;;3.38;2.50;;;16.10;99.90;;;;;;5037888;28;20033;-60
2021/09/19 08:29:41;;;;;;;3.22;2.28;;;16.40;99.90;;;;;;5023847;28;20036;-62
2021/09/19 08:32:07;;;;;;;4.07;2.40;;;16.90;99.90;;;;;;5031543;28;20101;-62
2021/09/19 08:34:36;;;;;;;3.70;2.33;;;17.40;99.90;;;;;;5029370;28;20021;-62
2021/09/19 08:37:03;;;;;;;2.30;2.08;;;17.90;99.30;;;;;;5031436;28;20440;-62
2021/09/19 08:39:29;;;;;;;4.70;2.63;;;18.30;97.80;;;;;;5031899;28;20036;-63
2021/09/19 08:41:54;;;;;;;3.85;2.80;;;18.40;91.40;;;;;;5031804;28;20025;-62
2021/09/19 08:44:20;;;;;;;3.90;2.50;;;18.40;89.00;;;;;;5031691;28;20041;-62
2021/09/19 08:46:46;;;;;;;5.07;2.30;;;18.40;90.00;;;;;;5031852;28;20052;-62
2021/09/19 08:49:16;;;;;;;2.78;2.53;;;18.60;87.60;;;;;;5030623;28;20052;-61
2021/09/19 08:51:42;;;;;;;3.50;3.17;;;18.70;79.80;;;;;;5030540;28;20022;-62
2021/09/19 08:54:08;;;;;;;5.65;3.10;;;18.60;72.50;;;;;;5029273;28;20105;-62
2021/09/19 08:56:35;;;;;;;3.20;2.50;;;18.40;67.30;;;;;;5031649;28;20044;-58
2021/09/19 08:59:01;;;;;;;2.92;2.05;;;18.50;77.20;;;;;;5031682;28;20091;-60
2021/09/19 09:01:26;;;;;;;3.60;2.42;;;18.80;80.50;;;;;;5031680;28;20473;-61
2021/09/19 09:03:52;;;;;;;3.72;2.38;;;19.20;78.80;;;;;;5029572;28;20041;-62
2021/09/19 09:06:19;;;;;;;2.63;2.13;;;19.40;76.30;;;;;;5031319;28;20046;-62
2021/09/19 09:08:46;;;;;;;4.03;2.70;;;19.40;70.00;;;;;;5032004;28;20017;-62
2021/09/19 09:11:12;;;;;;;3.35;2.30;;;19.40;66.00;;;;;;5021741;28;20022;-61
2021/09/19 09:13:40;;;;;;;4.47;2.75;;;19.70;67.10;;;;;;5032649;28;20033;-62
2021/09/19 09:16:17;;;;;;;3.63;2.28;;;19.80;55.50;;;;;;5031439;28;20025;-62
2021/09/19 09:18:43;;;;;;;2.20;1.73;;;19.60;58.70;;;;;;5025982;28;20025;-63
2021/09/19 09:21:13;;;;;;;2.13;1.58;;;19.80;62.70;;;;;;5033269;28;20018;-61
2021/09/19 09:23:39;;;;;;;4.45;2.90;;;19.90;62.60;;;;;;5033344;28;20029;-62
2021/09/19 09:26:12;;;;;;;4.60;2.83;;;20.00;61.20;;;;;;5037770;28;20053;-62
2021/09/19 09:28:45;;;;;;;4.85;2.15;;;20.20;61.80;;;;;;5038124;28;20026;-63
2021/09/19 09:31:12;;;;;;;2.15;1.95;;;20.20;56.90;;;;;;5027709;28;20485;-61
2021/09/19 09:33:38;;;;;;;2.63;2.08;;;20.20;58.50;;;;;;5038311;28;20060;-62
2021/09/19 09:36:08;;;;;;;2.65;2.03;;;20.10;54.30;;;;;;5041077;28;20053;-63
2021/09/19 09:38:35;;;;;;;2.17;1.60;;;20.10;50.30;;;;;;5045856;28;20032;-63
2021/09/19 09:41:01;;;;;;;2.58;1.70;;;20.10;51.90;;;;;;5039828;28;20026;-61
2021/09/19 09:43:28;;;;;;;4.10;2.40;;;20.20;51.80;;;;;;5038492;28;20029;-62
2021/09/19 09:45:54;;;;;;;2.28;1.80;;;20.00;46.70;;;;;;5041838;28;20029;-60
2021/09/19 09:48:30;;;;;;;2.10;1.70;;;20.10;51.10;;;;;;5041076;28;20384;-61
2021/09/19 09:51:00;;;;;;;3.92;1.90;;;20.20;46.60;;;;;;5037095;28;20384;-62
2021/09/19 09:53:27;;;;;;;3.13;2.20;;;20.10;49.60;;;;;;5034297;28;20022;-60
2021/09/19 09:55:54;;;;;;;2.10;1.85;;;20.00;43.60;;;;;;5043251;28;20025;-62
2021/09/19 09:58:21;;;;;;;5.88;1.90;;;20.00;49.00;;;;;;5039400;28;20041;-62
2021/09/19 10:00:50;;;;;;;2.08;1.70;;;20.00;45.70;;;;;;5037660;28;20029;-62
2021/09/19 10:03:16;;;;;;;2.88;1.80;;;19.90;45.90;;;;;;5030656;28;20033;-63
2021/09/19 10:05:42;;;;;;;2.70;2.10;;;19.90;44.30;;;;;;5032286;28;20049;-63
2021/09/19 10:08:08;;;;;;;3.80;2.10;;;19.70;43.70;;;;;;5032404;28;20083;-61
2021/09/19 10:10:40;;;;;;;1.90;1.70;;;19.70;43.70;;;;;;5020450;28;20053;-63
2021/09/19 10:13:07;;;;;;;2.40;1.73;;;19.90;44.50;;;;;;5032597;28;20026;-61
2021/09/19 10:15:33;;;;;;;2.15;1.60;;;19.70;40.80;;;;;;5031212;28;20029;-62
2021/09/19 10:17:58;;;;;;;2.65;1.90;;;19.70;35.00;;;;;;5031336;28;20025;-58
2021/09/19 10:20:38;;;;;;;4.32;1.70;;;19.30;36.60;;;;;;5033705;28;20521;-60
2021/09/19 10:23:27;;;;;;;2.13;1.80;;;19.30;37.10;;;;;;5032992;28;20496;-62
2021/09/19 10:26:07;;;;;;;2.33;2.00;;;19.20;38.00;;;;;;5032794;28;20075;-60
2021/09/19 10:28:41;;;;;;;2.60;1.83;;;19.30;42.20;;;;;;5033062;28;20836;-63
2021/09/19 10:31:11;;;;;;;5.22;2.22;;;19.30;39.10;;;;;;5032622;28;20434;-62
2021/09/19 10:33:39;;;;;;;3.08;2.50;;;19.20;37.60;;;;;;5031805;28;20492;-63
2021/09/19 10:36:20;;;;;;;3.45;2.03;;;19.10;35.80;;;;;;5032595;28;20071;-62
2021/09/19 10:38:46;;;;;;;3.70;2.13;;;18.70;37.60;;;;;;5032688;28;20386;-63
2021/09/19 10:41:19;;;;;;;3.58;2.28;;;18.60;40.00;;;;;;5032233;28;20032;-62
2021/09/19 10:43:54;;;;;;;2.70;2.30;;;18.20;38.30;;;;;;5032664;28;20021;-61
2021/09/19 10:46:38;;;;;;;6.63;2.25;;;17.90;39.00;;;;;;5032384;28;20080;-60
2021/09/19 10:49:17;;;;;;;2.88;2.10;;;17.70;39.50;;;;;;5031078;28;20477;-58
2021/09/19 10:52:08;;;;;;;3.72;1.90;;;17.50;42.10;;;;;;5032231;28;20037;-62
2021/09/19 10:54:42;;;;;;;2.28;1.65;;;17.50;42.20;;;;;;5037565;28;20029;-60
2021/09/19 10:57:19;;;;;;;3.78;1.63;;;17.40;44.30;;;;;;5037104;28;20120;-62
2021/09/19 11:00:19;;;;;;;5.55;1.80;;;17.40;45.50;;;;;;5038222;28;20025;-62
2021/09/19 11:03:08;;;;;;;4.00;2.33;;;17.40;44.10;;;;;;5031314;28;20108;-63
2021/09/19 11:05:35;;;;;;;2.47;1.77;;;17.20;43.80;;;;;;5033001;28;20560;-62
2021/09/19 11:08:09;;;;;;;3.80;2.13;;;17.10;46.50;;;;;;5036759;28;20068;-61
2021/09/19 11:10:50;;;;;;;2.78;2.17;;;17.00;47.30;;;;;;5035445;28;20060;-62
2021/09/19 11:13:18;;;;;;;2.33;1.88;;;17.00;48.00;;;;;;5028017;28;20033;-61
2021/09/19 11:16:05;;;;;;;4.93;1.92;;;17.00;48.80;;;;;;5025473;28;20033;-62
2021/09/19 11:18:39;;;;;;;3.15;2.00;;;17.00;48.70;;;;;;5034868;28;20424;-62
2021/09/19 11:21:20;;;;;;;4.10;2.17;;;17.00;48.30;;;;;;5040301;28;20030;-62
2021/09/19 11:23:52;;;;;;;2.40;2.13;;;16.90;48.50;;;;;;5039667;28;20029;-62
2021/09/19 11:26:26;;;;;;;3.47;2.03;;;16.90;49.50;;;;;;5030901;28;20035;-63
2021/09/19 11:28:58;;;;;;;4.07;2.33;;;16.90;50.50;;;;;;5030636;28;20044;-63
2021/09/19 11:31:24;;;;;;;3.97;2.13;;;16.90;52.00;;;;;;5038700;28;20029;-63
2021/09/19 11:33:51;;;;;;;3.08;2.10;;;16.90;51.70;;;;;;5041710;28;20484;-62
2021/09/19 11:36:19;;;;;;;3.05;2.05;;;16.90;51.80;;;;;;5039753;28;20040;-63
2021/09/19 11:38:50;;;;;;;3.78;2.30;;;17.00;52.20;;;;;;5033261;28;20496;-63
2021/09/19 11:41:17;;;;;;;5.25;1.92;;;17.00;52.60;;;;;;5022471;28;20103;-61
2021/09/19 11:43:44;;;;;;;2.40;1.80;;;17.00;53.70;;;;;;5037227;28;20025;-63
2021/09/19 11:46:14;;;;;;;2.22;1.85;;;17.00;53.70;;;;;;5031177;28;20025;-63
2021/09/19 11:48:40;;;;;;;3.20;2.10;;;17.10;54.00;;;;;;5037748;28;20382;-63
2021/09/19 11:51:07;;;;;;;2.30;1.65;;;17.20;53.90;;;;;;5032512;28;20025;-62
2021/09/19 11:53:33;;;;;;;2.90;2.00;;;17.40;54.00;;;;;;5030784;28;20017;-64
2021/09/19 11:55:59;;;;;;;5.05;2.28;;;17.50;53.60;;;;;;5030167;28;20105;-63
2021/09/19 11:58:25;;;;;;;2.72;2.22;;;17.60;53.40;;;;;;5030795;28;20141;-63
2021/09/19 12:00:55;;;;;;;2.42;2.13;;;17.70;53.40;;;;;;5031753;28;20127;-63
2021/09/19 12:03:22;;;;;;;4.28;2.08;;;17.70;53.30;;;;;;5029124;28;20048;-63
2021/09/19 12:05:49;;;;;;;5.03;1.80;;;17.70;52.50;;;;;;5023580;28;20055;-63
2021/09/19 12:08:15;;;;;;;2.67;1.80;;;17.50;53.40;;;;;;5026596;28;20041;-63
2021/09/19 12:10:40;;;;;;;3.33;1.63;;;17.50;53.70;;;;;;5033140;28;20493;-63
2021/09/19 12:13:23;;;;;;;3.55;2.03;;;17.50;53.70;;;;;;5029487;28;20594;-62
2021/09/19 12:16:02;;;;;;;3.28;1.88;;;17.30;52.40;;;;;;5027081;28;20045;-62
2021/09/19 12:18:33;;;;;;;2.67;1.95;;;17.40;54.50;;;;;;5026488;28;20018;-62
2021/09/19 12:21:09;;;;;;;2.17;1.90;;;17.30;53.80;;;;;;5030193;28;20029;-59
2021/09/19 12:23:58;;;;;;;3.58;1.83;;;17.40;54.20;;;;;;5030210;28;20463;-62
2021/09/19 12:26:26;;;;;;;3.45;1.83;;;17.50;55.00;;;;;;5030477;28;20037;-61
2021/09/19 12:28:54;;;;;;;2.65;1.83;;;17.50;54.10;;;;;;5029039;28;20046;-63
2021/09/19 12:31:42;;;;;;;2.42;1.85;;;17.50;55.40;;;;;;5030007;28;20033;-63
2021/09/19 12:34:14;;;;;;;3.20;1.70;;;17.50;55.60;;;;;;5028538;28;20071;-61
2021/09/19 12:36:44;;;;;;;3.05;1.80;;;17.60;55.30;;;;;;5029783;28;20132;-61
2021/09/19 12:39:26;;;;;;;3.67;1.70;;;17.70;55.10;;;;;;5036388;28;20036;-62
2021/09/19 12:41:54;;;;;;;4.82;1.88;;;17.60;53.40;;;;;;5040001;28;20080;-63
2021/09/19 12:44:28;;;;;;;4.65;2.50;;;17.60;53.70;;;;;;5037743;28;20033;-63
2021/09/19 12:46:59;;;;;;;3.30;1.63;;;17.60;53.10;;;;;;5041320;28;20385;-63
2021/09/19 12:49:34;;;;;;;3.78;1.83;;;17.70;54.40;;;;;;5044402;28;20055;-64